sensor_id;sensor_type;location;lat;lon;timestamp;temperature;humidity
50544;DHT22;41176;44.032;20.900;2022-09-17T00:01:14;18.80;99.90
50544;DHT22;41176;44.032;20.900;2022-09-17T00:03:42;18.80;99.90
50544;DHT22;41176;44.032;20.900;2022-09-17T00:06:10;18.90;99.90
50544;DHT22;41176;44.032;20.900;2022-09-17T00:08:38;18.90;99.90
50544;DHT22;41176;44.032;20.900;2022-09-17T00:11:10;18.90;99.90
50544;DHT22;41176;44.032;20.900;2022-09-17T00:13:36;18.80;99.90
50544;DHT22;41176;44.032;20.900;2022-09-17T00:16:02;18.80;99.90
50544;DHT22;41176;44.032;20.900;2022-09-17T00:18:27;18.60;99.90
50544;DHT22;41176;44.032;20.900;2022-09-17T00:20:53;18.40;99.90
50544;DHT22;41176;44.032;20.900;2022-09-17T00:23:19;18.50;99.90
50544;DHT22;41176;44.032;20.900;2022-09-17T00:25:45;18.50;99.90
50544;DHT22;41176;44.032;20.900;2022-09-17T00:28:12;18.50;99.90
50544;DHT22;41176;44.032;20.900;2022-09-17T00:30:43;18.50;99.90
50544;DHT22;41176;44.032;20.900;2022-09-17T00:33:14;18.50;99.90
50544;DHT22;41176;44.032;20.900;2022-09-17T00:35:40;18.50;99.90
50544;DHT22;41176;44.032;20.900;2022-09-17T00:38:06;18.60;99.90
50544;DHT22;41176;44.032;20.900;2022-09-17T00:40:32;18.70;99.90
50544;DHT22;41176;44.032;20.900;2022-09-17T00:42:58;18.60;99.90
50544;DHT22;41176;44.032;20.900;2022-09-17T00:45:25;18.50;99.90
50544;DHT22;41176;44.032;20.900;2022-09-17T00:48:00;18.50;99.90
50544;DHT22;41176;44.032;20.900;2022-09-17T00:50:30;18.60;99.90
50544;DHT22;41176;44.032;20.900;2022-09-17T00:53:10;18.60;99.90
50544;DHT22;41176;44.032;20.900;2022-09-17T00:56:08;18.60;99.90
50544;DHT22;41176;44.032;20.900;2022-09-17T00:58:36;18.50;99.90
50544;DHT22;41176;44.032;20.900;2022-09-17T01:01:02;18.50;99.90
50544;DHT22;41176;44.032;20.900;2022-09-17T01:03:28;18.50;99.90
50544;DHT22;41176;44.032;20.900;2022-09-17T01:17:37;18.50;99.90
50544;DHT22;41176;44.032;20.900;2022-09-17T01:32:17;18.20;99.90
50544;DHT22;41176;44.032;20.900;2022-09-17T01:37:40;18.20;99.90
50544;DHT22;41176;44.032;20.900;2022-09-17T01:40:25;18.30;99.90
50544;DHT22;41176;44.032;20.900;2022-09-17T01:45:33;18.20;99.90
50544;DHT22;41176;44.032;20.900;2022-09-17T01:48:20;18.20;99.90
50544;DHT22;41176;44.032;20.900;2022-09-17T01:50:54;18.20;99.90
50544;DHT22;41176;44.032;20.900;2022-09-17T01:53:24;18.10;99.90
50544;DHT22;41176;44.032;20.900;2022-09-17T01:55:53;18.10;99.90
50544;DHT22;41176;44.032;20.900;2022-09-17T01:58:31;18.10;99.90
50544;DHT22;41176;44.032;20.900;2022-09-17T02:01:02;18.00;99.90
50544;DHT22;41176;44.032;20.900;2022-09-17T02:03:45;17.90;99.90
50544;DHT22;41176;44.032;20.900;2022-09-17T02:06:23;18.00;99.90
50544;DHT22;41176;44.032;20.900;2022-09-17T02:11:30;18.10;99.90
50544;DHT22;41176;44.032;20.900;2022-09-17T02:14:01;18.10;99.90
50544;DHT22;41176;44.032;20.900;2022-09-17T02:16:35;18.10;99.90
50544;DHT22;41176;44.032;20.900;2022-09-17T02:19:20;18.10;99.90
50544;DHT22;41176;44.032;20.900;2022-09-17T02:26:59;18.00;99.90
50544;DHT22;41176;44.032;20.900;2022-09-17T02:29:39;17.90;99.90
50544;DHT22;41176;44.032;20.900;2022-09-17T02:32:06;17.90;99.90
50544;DHT22;41176;44.032;20.900;2022-09-17T02:34:33;17.90;99.90
50544;DHT22;41176;44.032;20.900;2022-09-17T02:36:59;17.90;99.90
50544;DHT22;41176;44.032;20.900;2022-09-17T02:39:26;17.90;99.90
50544;DHT22;41176;44.032;20.900;2022-09-17T02:55:37;18.30;99.90
50544;DHT22;41176;44.032;20.900;2022-09-17T03:00:34;18.30;99.90
50544;DHT22;41176;44.032;20.900;2022-09-17T03:03:28;18.30;99.90
50544;DHT22;41176;44.032;20.900;2022-09-17T03:05:56;18.30;99.90
50544;DHT22;41176;44.032;20.900;2022-09-17T03:08:28;18.30;99.90
50544;DHT22;41176;44.032;20.900;2022-09-17T03:10:54;18.20;99.90
50544;DHT22;41176;44.032;20.900;2022-09-17T03:13:20;18.30;99.90
50544;DHT22;41176;44.032;20.900;2022-09-17T03:15:46;18.40;99.90
50544;DHT22;41176;44.032;20.900;2022-09-17T03:18:12;18.40;99.90
50544;DHT22;41176;44.032;20.900;2022-09-17T03:20:37;18.40;99.90
50544;DHT22;41176;44.032;20.900;2022-09-17T03:23:03;18.30;99.90
50544;DHT22;41176;44.032;20.900;2022-09-17T03:25:29;18.40;99.90
50544;DHT22;41176;44.032;20.900;2022-09-17T03:27:54;18.50;99.90
50544;DHT22;41176;44.032;20.900;2022-09-17T03:30:20;18.50;99.90
50544;DHT22;41176;44.032;20.900;2022-09-17T03:32:47;18.50;99.90
50544;DHT22;41176;44.032;20.900;2022-09-17T03:35:13;18.50;99.90
50544;DHT22;41176;44.032;20.900;2022-09-17T03:37:39;18.50;99.90
50544;DHT22;41176;44.032;20.900;2022-09-17T03:40:05;18.50;99.90
50544;DHT22;41176;44.032;20.900;2022-09-17T03:42:31;18.60;99.90
50544;DHT22;41176;44.032;20.900;2022-09-17T03:44:56;18.60;99.90
50544;DHT22;41176;44.032;20.900;2022-09-17T03:47:22;18.60;99.90
50544;DHT22;41176;44.032;20.900;2022-09-17T03:49:48;18.60;99.90
50544;DHT22;41176;44.032;20.900;2022-09-17T03:52:14;18.70;99.90
50544;DHT22;41176;44.032;20.900;2022-09-17T03:54:39;18.60;99.90
50544;DHT22;41176;44.032;20.900;2022-09-17T03:57:05;18.50;99.90
50544;DHT22;41176;44.032;20.900;2022-09-17T03:59:31;18.30;99.90
50544;DHT22;41176;44.032;20.900;2022-09-17T04:01:56;18.00;99.90
50544;DHT22;41176;44.032;20.900;2022-09-17T04:04:22;17.80;99.90
50544;DHT22;41176;44.032;20.900;2022-09-17T04:06:48;17.60;99.90
50544;DHT22;41176;44.032;20.900;2022-09-17T04:09:14;17.40;99.90
50544;DHT22;41176;44.032;20.900;2022-09-17T04:11:39;17.40;99.90
50544;DHT22;41176;44.032;20.900;2022-09-17T04:14:05;17.20;99.90
50544;DHT22;41176;44.032;20.900;2022-09-17T04:16:31;17.00;99.90
50544;DHT22;41176;44.032;20.900;2022-09-17T04:18:56;16.80;99.90
50544;DHT22;41176;44.032;20.900;2022-09-17T04:21:22;16.70;99.90
50544;DHT22;41176;44.032;20.900;2022-09-17T04:23:48;16.60;99.90
50544;DHT22;41176;44.032;20.900;2022-09-17T04:26:14;16.60;99.90
50544;DHT22;41176;44.032;20.900;2022-09-17T04:28:40;16.50;99.90
50544;DHT22;41176;44.032;20.900;2022-09-17T04:31:06;16.50;99.90
50544;DHT22;41176;44.032;20.900;2022-09-17T04:33:31;16.40;99.90
50544;DHT22;41176;44.032;20.900;2022-09-17T04:35:57;16.40;99.90
50544;DHT22;41176;44.032;20.900;2022-09-17T04:38:23;16.30;99.90
50544;DHT22;41176;44.032;20.900;2022-09-17T04:40:49;16.20;99.90
50544;DHT22;41176;44.032;20.900;2022-09-17T04:43:16;16.20;99.90
50544;DHT22;41176;44.032;20.900;2022-09-17T04:45:45;16.10;99.90
50544;DHT22;41176;44.032;20.900;2022-09-17T04:48:11;16.10;99.90
50544;DHT22;41176;44.032;20.900;2022-09-17T04:50:37;16.00;99.90
50544;DHT22;41176;44.032;20.900;2022-09-17T04:53:02;15.90;99.90
50544;DHT22;41176;44.032;20.900;2022-09-17T04:55:28;15.90;99.90
50544;DHT22;41176;44.032;20.900;2022-09-17T04:57:56;16.00;99.90
50544;DHT22;41176;44.032;20.900;2022-09-17T05:00:22;15.90;99.90
50544;DHT22;41176;44.032;20.900;2022-09-17T05:02:51;16.00;99.90
50544;DHT22;41176;44.032;20.900;2022-09-17T05:05:17;16.00;99.90
50544;DHT22;41176;44.032;20.900;2022-09-17T05:07:43;15.90;99.90
50544;DHT22;41176;44.032;20.900;2022-09-17T05:10:10;15.90;99.90
50544;DHT22;41176;44.032;20.900;2022-09-17T05:12:36;15.90;99.90
50544;DHT22;41176;44.032;20.900;2022-09-17T05:15:03;15.80;99.90
50544;DHT22;41176;44.032;20.900;2022-09-17T05:17:30;15.80;99.90
50544;DHT22;41176;44.032;20.900;2022-09-17T05:19:56;15.80;99.90
50544;DHT22;41176;44.032;20.900;2022-09-17T05:22:22;15.90;99.90
50544;DHT22;41176;44.032;20.900;2022-09-17T05:24:48;15.90;99.90
50544;DHT22;41176;44.032;20.900;2022-09-17T05:27:13;16.00;99.90
50544;DHT22;41176;44.032;20.900;2022-09-17T05:29:39;16.00;99.90
50544;DHT22;41176;44.032;20.900;2022-09-17T05:32:05;16.00;99.90
50544;DHT22;41176;44.032;20.900;2022-09-17T05:34:31;16.00;99.90
50544;DHT22;41176;44.032;20.900;2022-09-17T05:36:57;15.90;99.90
50544;DHT22;41176;44.032;20.900;2022-09-17T05:39:23;15.80;99.90
50544;DHT22;41176;44.032;20.900;2022-09-17T05:41:52;15.80;99.90
50544;DHT22;41176;44.032;20.900;2022-09-17T05:44:18;15.70;99.90
50544;DHT22;41176;44.032;20.900;2022-09-17T05:46:45;15.70;99.90
50544;DHT22;41176;44.032;20.900;2022-09-17T05:49:11;15.70;99.90
50544;DHT22;41176;44.032;20.900;2022-09-17T05:51:37;15.80;99.90
50544;DHT22;41176;44.032;20.900;2022-09-17T05:54:03;15.80;99.90
50544;DHT22;41176;44.032;20.900;2022-09-17T05:56:29;15.80;99.90
50544;DHT22;41176;44.032;20.900;2022-09-17T05:58:55;15.80;99.90
50544;DHT22;41176;44.032;20.900;2022-09-17T06:01:22;15.80;99.90
50544;DHT22;41176;44.032;20.900;2022-09-17T06:03:48;15.80;99.90
50544;DHT22;41176;44.032;20.900;2022-09-17T06:06:13;15.80;99.90
50544;DHT22;41176;44.032;20.900;2022-09-17T06:08:39;15.80;99.90
50544;DHT22;41176;44.032;20.900;2022-09-17T06:11:06;15.70;99.90
50544;DHT22;41176;44.032;20.900;2022-09-17T06:13:32;15.60;99.90
50544;DHT22;41176;44.032;20.900;2022-09-17T06:15:59;15.70;99.90
50544;DHT22;41176;44.032;20.900;2022-09-17T06:18:26;15.70;99.90
50544;DHT22;41176;44.032;20.900;2022-09-17T06:20:57;15.80;99.90
50544;DHT22;41176;44.032;20.900;2022-09-17T06:23:23;16.00;99.90
50544;DHT22;41176;44.032;20.900;2022-09-17T06:25:56;16.00;99.90
50544;DHT22;41176;44.032;20.900;2022-09-17T06:28:22;16.10;99.90
50544;DHT22;41176;44.032;20.900;2022-09-17T06:30:48;16.10;99.90
50544;DHT22;41176;44.032;20.900;2022-09-17T06:33:17;16.00;99.90
50544;DHT22;41176;44.032;20.900;2022-09-17T06:35:42;16.00;99.90
50544;DHT22;41176;44.032;20.900;2022-09-17T06:38:08;16.00;99.90
50544;DHT22;41176;44.032;20.900;2022-09-17T06:40:34;15.90;99.90
50544;DHT22;41176;44.032;20.900;2022-09-17T06:43:00;15.90;99.90
50544;DHT22;41176;44.032;20.900;2022-09-17T06:45:26;15.90;99.90
50544;DHT22;41176;44.032;20.900;2022-09-17T06:47:52;15.80;99.90
50544;DHT22;41176;44.032;20.900;2022-09-17T06:50:18;15.80;99.90
50544;DHT22;41176;44.032;20.900;2022-09-17T06:52:51;15.90;99.90
50544;DHT22;41176;44.032;20.900;2022-09-17T06:55:18;15.90;99.90
50544;DHT22;41176;44.032;20.900;2022-09-17T06:57:44;16.00;99.90
50544;DHT22;41176;44.032;20.900;2022-09-17T07:00:10;16.10;99.90
50544;DHT22;41176;44.032;20.900;2022-09-17T07:02:37;16.20;99.90
50544;DHT22;41176;44.032;20.900;2022-09-17T07:05:03;16.20;99.90
50544;DHT22;41176;44.032;20.900;2022-09-17T07:07:29;16.20;99.90
50544;DHT22;41176;44.032;20.900;2022-09-17T07:09:55;16.20;99.90
50544;DHT22;41176;44.032;20.900;2022-09-17T07:12:21;16.30;99.90
50544;DHT22;41176;44.032;20.900;2022-09-17T07:14:47;16.30;99.90
50544;DHT22;41176;44.032;20.900;2022-09-17T07:17:15;16.40;99.90
50544;DHT22;41176;44.032;20.900;2022-09-17T07:19:41;16.60;99.90
50544;DHT22;41176;44.032;20.900;2022-09-17T07:22:07;16.80;99.90
50544;DHT22;41176;44.032;20.900;2022-09-17T07:24:33;16.90;99.90
50544;DHT22;41176;44.032;20.900;2022-09-17T07:27:00;16.90;99.90
50544;DHT22;41176;44.032;20.900;2022-09-17T07:29:26;16.90;99.90
50544;DHT22;41176;44.032;20.900;2022-09-17T07:31:53;16.90;99.90
50544;DHT22;41176;44.032;20.900;2022-09-17T07:34:19;16.90;99.90
50544;DHT22;41176;44.032;20.900;2022-09-17T07:36:45;16.80;99.90
50544;DHT22;41176;44.032;20.900;2022-09-17T07:39:11;16.70;99.90
50544;DHT22;41176;44.032;20.900;2022-09-17T07:41:38;16.60;99.90
50544;DHT22;41176;44.032;20.900;2022-09-17T07:44:04;16.70;99.90
50544;DHT22;41176;44.032;20.900;2022-09-17T07:46:32;16.70;99.90
50544;DHT22;41176;44.032;20.900;2022-09-17T07:48:58;16.70;99.90
50544;DHT22;41176;44.032;20.900;2022-09-17T07:51:26;16.70;99.90
50544;DHT22;41176;44.032;20.900;2022-09-17T07:53:55;16.60;99.90
50544;DHT22;41176;44.032;20.900;2022-09-17T07:56:27;16.60;99.90
50544;DHT22;41176;44.032;20.900;2022-09-17T07:58:52;16.40;99.90
50544;DHT22;41176;44.032;20.900;2022-09-17T08:01:18;16.40;99.90
50544;DHT22;41176;44.032;20.900;2022-09-17T08:03:48;16.50;99.90
50544;DHT22;41176;44.032;20.900;2022-09-17T08:06:18;16.50;99.90
50544;DHT22;41176;44.032;20.900;2022-09-17T08:08:44;16.40;99.90
50544;DHT22;41176;44.032;20.900;2022-09-17T08:11:13;16.40;99.90
50544;DHT22;41176;44.032;20.900;2022-09-17T08:13:40;16.50;99.90
50544;DHT22;41176;44.032;20.900;2022-09-17T08:16:08;16.50;99.90
50544;DHT22;41176;44.032;20.900;2022-09-17T08:18:35;16.40;99.90
50544;DHT22;41176;44.032;20.900;2022-09-17T08:21:06;16.40;99.90
50544;DHT22;41176;44.032;20.900;2022-09-17T08:23:34;16.50;99.90
50544;DHT22;41176;44.032;20.900;2022-09-17T08:26:01;16.50;99.90
50544;DHT22;41176;44.032;20.900;2022-09-17T08:28:29;16.50;99.90
50544;DHT22;41176;44.032;20.900;2022-09-17T08:31:04;16.50;99.90
50544;DHT22;41176;44.032;20.900;2022-09-17T08:33:35;16.50;99.90
50544;DHT22;41176;44.032;20.900;2022-09-17T08:36:01;16.40;99.90
50544;DHT22;41176;44.032;20.900;2022-09-17T08:38:31;16.40;99.90
50544;DHT22;41176;44.032;20.900;2022-09-17T08:46:08;16.30;99.90
50544;DHT22;41176;44.032;20.900;2022-09-17T08:48:40;16.40;99.90
50544;DHT22;41176;44.032;20.900;2022-09-17T08:54:12;16.50;99.90
50544;DHT22;41176;44.032;20.900;2022-09-17T08:56:42;16.60;99.90
50544;DHT22;41176;44.032;20.900;2022-09-17T09:04:52;16.60;99.90
50544;DHT22;41176;44.032;20.900;2022-09-17T09:07:28;16.60;99.90
50544;DHT22;41176;44.032;20.900;2022-09-17T09:10:15;16.60;99.90
50544;DHT22;41176;44.032;20.900;2022-09-17T09:12:43;16.50;99.90
50544;DHT22;41176;44.032;20.900;2022-09-17T09:17:51;16.60;99.90
50544;DHT22;41176;44.032;20.900;2022-09-17T09:20:30;16.60;99.90
50544;DHT22;41176;44.032;20.900;2022-09-17T09:23:16;16.50;99.90
50544;DHT22;41176;44.032;20.900;2022-09-17T09:25:52;16.50;99.90
50544;DHT22;41176;44.032;20.900;2022-09-17T09:33:44;16.60;99.90
50544;DHT22;41176;44.032;20.900;2022-09-17T09:36:14;16.60;99.90
50544;DHT22;41176;44.032;20.900;2022-09-17T09:41:45;16.60;99.90
50544;DHT22;41176;44.032;20.900;2022-09-17T09:44:12;16.70;99.90
50544;DHT22;41176;44.032;20.900;2022-09-17T09:49:32;16.60;99.90
50544;DHT22;41176;44.032;20.900;2022-09-17T09:54:54;16.60;99.90
50544;DHT22;41176;44.032;20.900;2022-09-17T09:57:43;16.50;99.90
50544;DHT22;41176;44.032;20.900;2022-09-17T10:00:27;16.50;99.90
50544;DHT22;41176;44.032;20.900;2022-09-17T10:05:26;16.60;99.90
50544;DHT22;41176;44.032;20.900;2022-09-17T10:07:52;16.60;99.90
50544;DHT22;41176;44.032;20.900;2022-09-17T10:10:18;16.50;99.90
50544;DHT22;41176;44.032;20.900;2022-09-17T10:12:44;16.50;99.90
50544;DHT22;41176;44.032;20.900;2022-09-17T10:15:25;16.60;99.90
50544;DHT22;41176;44.032;20.900;2022-09-17T10:18:14;16.70;99.90
50544;DHT22;41176;44.032;20.900;2022-09-17T10:20:54;16.80;99.90
50544;DHT22;41176;44.032;20.900;2022-09-17T10:23:22;17.00;99.90
50544;DHT22;41176;44.032;20.900;2022-09-17T10:25:49;17.00;99.90
50544;DHT22;41176;44.032;20.900;2022-09-17T10:28:42;17.10;99.90
50544;DHT22;41176;44.032;20.900;2022-09-17T10:31:09;17.00;99.90
50544;DHT22;41176;44.032;20.900;2022-09-17T10:33:51;16.90;99.90
50544;DHT22;41176;44.032;20.900;2022-09-17T10:36:38;17.00;99.90
50544;DHT22;41176;44.032;20.900;2022-09-17T10:42:00;17.00;99.90
50544;DHT22;41176;44.032;20.900;2022-09-17T10:44:34;17.00;99.90
50544;DHT22;41176;44.032;20.900;2022-09-17T10:47:09;16.90;99.90
50544;DHT22;41176;44.032;20.900;2022-09-17T10:49:39;16.90;99.90
50544;DHT22;41176;44.032;20.900;2022-09-17T10:52:13;17.00;99.90
50544;DHT22;41176;44.032;20.900;2022-09-17T10:54:55;17.00;99.90
50544;DHT22;41176;44.032;20.900;2022-09-17T11:00:19;17.00;99.90
50544;DHT22;41176;44.032;20.900;2022-09-17T11:11:33;17.20;99.90
50544;DHT22;41176;44.032;20.900;2022-09-17T11:14:09;17.30;99.90
50544;DHT22;41176;44.032;20.900;2022-09-17T11:17:07;17.20;99.90
50544;DHT22;41176;44.032;20.900;2022-09-17T11:20:06;17.30;99.90
50544;DHT22;41176;44.032;20.900;2022-09-17T11:39:21;17.20;99.90
50544;DHT22;41176;44.032;20.900;2022-09-17T11:41:55;17.20;99.90
50544;DHT22;41176;44.032;20.900;2022-09-17T11:47:15;17.00;99.90
50544;DHT22;41176;44.032;20.900;2022-09-17T11:49:52;17.00;99.90
50544;DHT22;41176;44.032;20.900;2022-09-17T11:52:32;16.90;99.90
50544;DHT22;41176;44.032;20.900;2022-09-17T11:58:51;16.70;99.90
50544;DHT22;41176;44.032;20.900;2022-09-17T12:01:50;16.60;99.90
50544;DHT22;41176;44.032;20.900;2022-09-17T12:07:35;16.50;99.90
50544;DHT22;41176;44.032;20.900;2022-09-17T12:12:46;16.50;99.90
50544;DHT22;41176;44.032;20.900;2022-09-17T12:15:23;16.60;99.90
50544;DHT22;41176;44.032;20.900;2022-09-17T12:18:16;16.50;99.90
50544;DHT22;41176;44.032;20.900;2022-09-17T12:20:46;16.50;99.90
50544;DHT22;41176;44.032;20.900;2022-09-17T12:23:17;16.50;99.90
50544;DHT22;41176;44.032;20.900;2022-09-17T12:29:02;16.30;99.90
50544;DHT22;41176;44.032;20.900;2022-09-17T12:31:47;16.30;99.90
50544;DHT22;41176;44.032;20.900;2022-09-17T12:34:31;16.40;99.90
50544;DHT22;41176;44.032;20.900;2022-09-17T12:37:15;16.40;99.90
50544;DHT22;41176;44.032;20.900;2022-09-17T12:42:28;16.20;99.90
50544;DHT22;41176;44.032;20.900;2022-09-17T12:47:47;16.40;99.90
50544;DHT22;41176;44.032;20.900;2022-09-17T12:53:27;16.40;99.90
50544;DHT22;41176;44.032;20.900;2022-09-17T12:59:05;16.40;99.90
50544;DHT22;41176;44.032;20.900;2022-09-17T13:01:49;16.20;99.90
50544;DHT22;41176;44.032;20.900;2022-09-17T13:04:31;16.30;99.90
50544;DHT22;41176;44.032;20.900;2022-09-17T13:23:11;17.00;99.90
50544;DHT22;41176;44.032;20.900;2022-09-17T13:25:51;16.90;99.90
50544;DHT22;41176;44.032;20.900;2022-09-17T13:28:21;16.90;99.90
50544;DHT22;41176;44.032;20.900;2022-09-17T13:31:00;17.00;99.90
50544;DHT22;41176;44.032;20.900;2022-09-17T13:36:34;17.30;99.90
50544;DHT22;41176;44.032;20.900;2022-09-17T13:39:04;17.40;99.90
50544;DHT22;41176;44.032;20.900;2022-09-17T13:41:35;17.30;99.90
50544;DHT22;41176;44.032;20.900;2022-09-17T13:44:07;17.20;99.90
50544;DHT22;41176;44.032;20.900;2022-09-17T13:46:36;17.20;99.90
50544;DHT22;41176;44.032;20.900;2022-09-17T13:49:10;17.10;99.90
50544;DHT22;41176;44.032;20.900;2022-09-17T13:54:07;17.10;99.90
50544;DHT22;41176;44.032;20.900;2022-09-17T13:56:40;17.10;99.90
50544;DHT22;41176;44.032;20.900;2022-09-17T14:09:56;17.00;99.90
50544;DHT22;41176;44.032;20.900;2022-09-17T14:21:13;16.80;99.90
50544;DHT22;41176;44.032;20.900;2022-09-17T14:23:48;17.00;99.90
50544;DHT22;41176;44.032;20.900;2022-09-17T14:26:55;17.10;99.90
50544;DHT22;41176;44.032;20.900;2022-09-17T14:29:26;17.10;99.90
50544;DHT22;41176;44.032;20.900;2022-09-17T14:31:58;17.10;99.90
50544;DHT22;41176;44.032;20.900;2022-09-17T14:34:25;17.20;99.90
50544;DHT22;41176;44.032;20.900;2022-09-17T14:36:53;17.20;99.90
50544;DHT22;41176;44.032;20.900;2022-09-17T14:39:29;17.00;99.90
50544;DHT22;41176;44.032;20.900;2022-09-17T14:42:01;17.00;99.90
50544;DHT22;41176;44.032;20.900;2022-09-17T14:44:30;17.00;99.90
50544;DHT22;41176;44.032;20.900;2022-09-17T14:47:03;16.90;99.90
50544;DHT22;41176;44.032;20.900;2022-09-17T14:49:34;17.00;99.90
50544;DHT22;41176;44.032;20.900;2022-09-17T14:55:19;16.80;99.90
50544;DHT22;41176;44.032;20.900;2022-09-17T14:57:53;16.70;99.90
50544;DHT22;41176;44.032;20.900;2022-09-17T15:00:24;16.80;99.90
50544;DHT22;41176;44.032;20.900;2022-09-17T15:02:53;16.80;99.90
50544;DHT22;41176;44.032;20.900;2022-09-17T15:05:29;16.90;99.90
50544;DHT22;41176;44.032;20.900;2022-09-17T15:08:27;16.90;99.90
50544;DHT22;41176;44.032;20.900;2022-09-17T15:11:02;16.90;99.90
50544;DHT22;41176;44.032;20.900;2022-09-17T15:13:34;16.90;99.90
50544;DHT22;41176;44.032;20.900;2022-09-17T15:16:20;16.90;99.90
50544;DHT22;41176;44.032;20.900;2022-09-17T15:18:59;16.90;99.90
50544;DHT22;41176;44.032;20.900;2022-09-17T15:21:40;16.90;99.90
50544;DHT22;41176;44.032;20.900;2022-09-17T15:24:44;16.90;99.90
50544;DHT22;41176;44.032;20.900;2022-09-17T15:27:46;16.80;99.90
50544;DHT22;41176;44.032;20.900;2022-09-17T15:30:15;16.90;99.90
50544;DHT22;41176;44.032;20.900;2022-09-17T15:32:47;16.90;99.90
50544;DHT22;41176;44.032;20.900;2022-09-17T15:37:46;16.80;99.90
50544;DHT22;41176;44.032;20.900;2022-09-17T15:40:33;16.80;99.90
50544;DHT22;41176;44.032;20.900;2022-09-17T15:45:44;16.70;99.90
50544;DHT22;41176;44.032;20.900;2022-09-17T15:50:58;16.60;99.90
50544;DHT22;41176;44.032;20.900;2022-09-17T15:53:27;16.60;99.90
50544;DHT22;41176;44.032;20.900;2022-09-17T15:56:06;16.50;99.90
50544;DHT22;41176;44.032;20.900;2022-09-17T15:58:57;16.50;99.90
50544;DHT22;41176;44.032;20.900;2022-09-17T16:04:16;16.40;99.90
50544;DHT22;41176;44.032;20.900;2022-09-17T16:09:36;16.40;99.90
50544;DHT22;41176;44.032;20.900;2022-09-17T16:12:02;16.40;99.90
50544;DHT22;41176;44.032;20.900;2022-09-17T16:14:28;16.30;99.90
50544;DHT22;41176;44.032;20.900;2022-09-17T16:16:54;16.30;99.90
50544;DHT22;41176;44.032;20.900;2022-09-17T16:19:21;16.30;99.90
50544;DHT22;41176;44.032;20.900;2022-09-17T16:21:47;16.20;99.90
50544;DHT22;41176;44.032;20.900;2022-09-17T16:24:12;16.30;99.90
50544;DHT22;41176;44.032;20.900;2022-09-17T16:26:39;16.30;99.90
50544;DHT22;41176;44.032;20.900;2022-09-17T16:29:09;16.30;99.90
50544;DHT22;41176;44.032;20.900;2022-09-17T16:31:37;16.30;99.90
50544;DHT22;41176;44.032;20.900;2022-09-17T16:34:03;16.20;99.90
50544;DHT22;41176;44.032;20.900;2022-09-17T16:36:29;16.20;99.90
50544;DHT22;41176;44.032;20.900;2022-09-17T16:38:56;16.20;99.90
50544;DHT22;41176;44.032;20.900;2022-09-17T16:41:22;16.20;99.90
50544;DHT22;41176;44.032;20.900;2022-09-17T16:43:48;16.20;99.90
50544;DHT22;41176;44.032;20.900;2022-09-17T16:46:14;16.20;99.90
50544;DHT22;41176;44.032;20.900;2022-09-17T16:48:40;16.10;99.90
50544;DHT22;41176;44.032;20.900;2022-09-17T16:51:09;16.10;99.90
50544;DHT22;41176;44.032;20.900;2022-09-17T16:53:35;16.00;99.90
50544;DHT22;41176;44.032;20.900;2022-09-17T16:56:05;16.00;99.90
50544;DHT22;41176;44.032;20.900;2022-09-17T16:58:31;16.00;99.90
50544;DHT22;41176;44.032;20.900;2022-09-17T17:00:57;15.80;99.90
50544;DHT22;41176;44.032;20.900;2022-09-17T17:03:23;15.90;99.90
50544;DHT22;41176;44.032;20.900;2022-09-17T17:05:48;15.90;99.90
50544;DHT22;41176;44.032;20.900;2022-09-17T17:08:14;15.80;99.90
50544;DHT22;41176;44.032;20.900;2022-09-17T17:10:40;15.90;99.90
50544;DHT22;41176;44.032;20.900;2022-09-17T17:13:07;15.80;99.90
50544;DHT22;41176;44.032;20.900;2022-09-17T17:15:34;15.80;99.90
50544;DHT22;41176;44.032;20.900;2022-09-17T17:17:59;15.80;99.90
50544;DHT22;41176;44.032;20.900;2022-09-17T17:20:25;15.90;99.90
50544;DHT22;41176;44.032;20.900;2022-09-17T17:22:53;15.90;99.90
50544;DHT22;41176;44.032;20.900;2022-09-17T17:25:19;15.80;99.90
50544;DHT22;41176;44.032;20.900;2022-09-17T17:27:44;15.80;99.90
50544;DHT22;41176;44.032;20.900;2022-09-17T17:30:12;15.80;99.90
50544;DHT22;41176;44.032;20.900;2022-09-17T17:32:42;15.90;99.90
50544;DHT22;41176;44.032;20.900;2022-09-17T17:35:09;15.90;99.90
50544;DHT22;41176;44.032;20.900;2022-09-17T17:37:36;15.80;99.90
50544;DHT22;41176;44.032;20.900;2022-09-17T17:40:03;15.80;99.90
50544;DHT22;41176;44.032;20.900;2022-09-17T17:42:35;15.80;99.90
50544;DHT22;41176;44.032;20.900;2022-09-17T17:45:07;15.80;99.90
50544;DHT22;41176;44.032;20.900;2022-09-17T17:47:34;15.80;99.90
50544;DHT22;41176;44.032;20.900;2022-09-17T17:50:00;15.90;99.90
50544;DHT22;41176;44.032;20.900;2022-09-17T17:52:26;15.90;99.90
50544;DHT22;41176;44.032;20.900;2022-09-17T17:54:54;15.90;99.90
50544;DHT22;41176;44.032;20.900;2022-09-17T17:57:21;15.80;99.90
50544;DHT22;41176;44.032;20.900;2022-09-17T17:59:47;15.70;99.90
50544;DHT22;41176;44.032;20.900;2022-09-17T18:02:13;15.80;99.90
50544;DHT22;41176;44.032;20.900;2022-09-17T18:04:39;15.70;99.90
50544;DHT22;41176;44.032;20.900;2022-09-17T18:07:06;15.80;99.90
50544;DHT22;41176;44.032;20.900;2022-09-17T18:09:34;15.80;99.90
50544;DHT22;41176;44.032;20.900;2022-09-17T18:12:00;15.70;99.90
50544;DHT22;41176;44.032;20.900;2022-09-17T18:14:26;15.80;99.90
50544;DHT22;41176;44.032;20.900;2022-09-17T18:16:52;15.70;99.90
50544;DHT22;41176;44.032;20.900;2022-09-17T18:19:19;15.60;99.90
50544;DHT22;41176;44.032;20.900;2022-09-17T18:21:46;15.60;99.90
50544;DHT22;41176;44.032;20.900;2022-09-17T18:24:12;15.60;99.90
50544;DHT22;41176;44.032;20.900;2022-09-17T18:26:38;15.60;99.90
50544;DHT22;41176;44.032;20.900;2022-09-17T18:29:03;15.60;99.90
50544;DHT22;41176;44.032;20.900;2022-09-17T18:31:34;15.60;99.90
50544;DHT22;41176;44.032;20.900;2022-09-17T18:34:26;15.60;99.90
50544;DHT22;41176;44.032;20.900;2022-09-17T18:36:54;15.60;99.90
50544;DHT22;41176;44.032;20.900;2022-09-17T18:39:20;15.60;99.90
50544;DHT22;41176;44.032;20.900;2022-09-17T18:41:46;15.50;99.90
50544;DHT22;41176;44.032;20.900;2022-09-17T18:44:13;15.40;99.90
50544;DHT22;41176;44.032;20.900;2022-09-17T18:46:42;15.40;99.90
50544;DHT22;41176;44.032;20.900;2022-09-17T18:49:08;15.30;99.90
50544;DHT22;41176;44.032;20.900;2022-09-17T18:51:36;15.20;99.90
50544;DHT22;41176;44.032;20.900;2022-09-17T18:54:03;15.10;99.90
50544;DHT22;41176;44.032;20.900;2022-09-17T18:56:31;15.10;99.90